עמוד ראשי
METAR-TAF:

METAR-TAF

שדות תעופה :

נמל התעופה הבינלאומי חמד

דוחה, קטאר

קו רוחב: 25-16-23N, קו אורך: 51-36-29E, גובה: 4מטר

תצפית מזג אוויר נוכחית

הדו"ח נערך לפני 16דקות, בשעה 02:00 UTC
רוח 11קשר מכיוון מערב, משתנה בין מערב ו צפון/צפון-מערב
טמפרטורת 36 צלסיוס
לחות 29%
לחץ 995 hPa
ראות 10 קילומטר או יותר
ללא עננים שבסיסם נמוך מ 5000 רגל או קומולונימבוס

METAR: OTHH 220200Z AUTO 28011KT 260V330 CAVOK 36/15 Q0995 NOSIG

זמן: 05:16 (02:16 UTC)

תחזית

הדו"ח נערך לפני 9 שעות ו 12דקות, בשעה 17:04 UTC
תחזית בתוקף מ 21 ב 18 UTC עד 22 ב 24 UTC
רוח 9קשר מכיוון צפון/צפון-מערב
ראות 10 קילומטר או יותר
ללא עננים שבסיסם נמוך מ 5000 רגל או קומולונימבוס
הסתברות 40% :
זמנית מ -
21 ב 20 UTC עד 22 ב 02 UTC
רוח 5קשר מכיוון מערב
זמנית מ -
22 ב 07 UTC עד 22 ב 15 UTC
רוח 12קשר מכיוון צפון/צפון-מזרח
ראות: 8000מטר

TAF: OTHH 211704Z 2118/2224 33009KT CAVOK PROB40 TEMPO 2120/2202 27005KT TEMPO 2207/2215 03012KT 8000 NSC

תצפיות ותחזיות מזג אוויר לגבי יותר מ- 4,000 שדות תעופה ברחבי העולם. דוחות METAR ו- TAF.

התחנות הזמינות מסומנות בנקודות צהובות ואדומות על גבי המפה.

העבר את העכבר לנקודה הצבעונית על מנת לראות את שם התחנה.

לאחר מכן, לחץ כדי לראות את תוכן ואת תחזיות מזג האוויר.

כדי לשנות את המפה: לחץ על הכפתורים הירוקים עם הפלוס השחור כדי להתקרב; על הכפתור הירוק עם המקף כדי להתרחק; או בחיצים הירוקים למפות סמוכות.


METAR-TAF: